createdAt,value
2018-03-20T00:00:35.149Z,101992.08
2018-03-20T00:03:03.471Z,101987.11
2018-03-20T00:05:31.812Z,101990.28
2018-03-20T00:08:00.194Z,101989.80
2018-03-20T00:10:28.521Z,101984.88
2018-03-20T00:12:57.176Z,101981.25
2018-03-20T00:15:25.529Z,101978.91
2018-03-20T00:17:54.631Z,101981.59
2018-03-20T00:20:23.716Z,101974.33
2018-03-20T00:22:52.067Z,101977.20
2018-03-20T00:25:20.390Z,101982.27
2018-03-20T00:27:49.506Z,101989.09
2018-03-20T00:30:17.944Z,101986.37
2018-03-20T00:32:46.507Z,101994.02
2018-03-20T00:35:14.877Z,101991.00
2018-03-20T00:37:43.297Z,101982.59
2018-03-20T00:40:11.618Z,101981.26
2018-03-20T00:42:40.715Z,101979.59
2018-03-20T00:45:09.075Z,101979.76
2018-03-20T00:47:37.387Z,101980.24
2018-03-20T00:50:06.580Z,101981.02
2018-03-20T00:52:35.763Z,101981.25
2018-03-20T00:55:04.089Z,101982.21
2018-03-20T01:00:12.395Z,101993.07
2018-03-20T01:02:41.480Z,101986.21
2018-03-20T01:05:10.599Z,101994.34
2018-03-20T01:07:38.935Z,101982.09
2018-03-20T01:10:07.299Z,101976.81
2018-03-20T01:12:35.680Z,101972.53
2018-03-20T01:15:03.983Z,101966.51
2018-03-20T01:17:32.326Z,101972.31
2018-03-20T01:20:00.653Z,101959.94
2018-03-20T01:22:28.959Z,101965.13
2018-03-20T01:24:57.272Z,101964.71
2018-03-20T01:27:25.591Z,101959.04
2018-03-20T01:29:54.008Z,101956.69
2018-03-20T01:32:22.338Z,101956.49
2018-03-20T01:34:50.719Z,101950.14
2018-03-20T01:37:19.027Z,101952.59
2018-03-20T01:39:47.356Z,101955.11
2018-03-20T01:42:16.438Z,101950.59
2018-03-20T01:44:45.545Z,101937.79
2018-03-20T01:47:13.879Z,101952.53
2018-03-20T01:49:42.207Z,101941.76
2018-03-20T01:52:11.377Z,101942.47
2018-03-20T01:54:39.717Z,101938.44
2018-03-20T01:57:08.037Z,101945.20
2018-03-20T01:59:36.365Z,101954.09
2018-03-20T02:02:05.462Z,101942.77
2018-03-20T02:04:34.536Z,101940.22
2018-03-20T02:07:03.692Z,101942.79
2018-03-20T02:09:32.005Z,101936.20
2018-03-20T02:12:00.313Z,101938.77
2018-03-20T02:14:29.442Z,101932.17
2018-03-20T02:16:57.771Z,101926.06
2018-03-20T02:19:26.077Z,101925.16
2018-03-20T02:21:54.415Z,101921.68
2018-03-20T02:24:22.721Z,101921.81
2018-03-20T02:26:51.051Z,101911.72
2018-03-20T02:29:19.359Z,101912.00
2018-03-20T02:31:47.672Z,101911.87
2018-03-20T02:34:16.030Z,101919.25
2018-03-20T02:36:44.346Z,101910.53
2018-03-20T02:39:12.766Z,101907.97
2018-03-20T02:41:41.076Z,101909.50
2018-03-20T02:44:09.439Z,101911.53
2018-03-20T02:46:37.761Z,101907.19
2018-03-20T02:49:06.071Z,101917.64
2018-03-20T02:51:35.154Z,101906.16
2018-03-20T02:54:03.461Z,101903.09
2018-03-20T02:56:32.558Z,101900.66
2018-03-20T02:59:01.639Z,101901.98
2018-03-20T03:01:29.963Z,101895.15
2018-03-20T03:03:58.265Z,101901.00
2018-03-20T03:06:26.591Z,101894.80
2018-03-20T03:08:55.675Z,101899.05
2018-03-20T03:11:23.991Z,101888.81
2018-03-20T03:13:53.069Z,101890.56
2018-03-20T03:16:21.383Z,101891.75
2018-03-20T03:18:49.683Z,101897.74
2018-03-20T03:21:17.986Z,101897.81
2018-03-20T03:23:47.047Z,101898.98
2018-03-20T03:26:15.360Z,101901.83
2018-03-20T03:28:43.691Z,101897.73
2018-03-20T03:31:12.782Z,101898.02
2018-03-20T03:33:41.971Z,101904.07
2018-03-20T03:36:10.289Z,101901.57
2018-03-20T03:38:38.619Z,101904.98
2018-03-20T03:41:06.952Z,101914.25
2018-03-20T03:43:35.281Z,101910.77
2018-03-20T03:46:03.615Z,101908.46
2018-03-20T03:48:31.943Z,101921.63
2018-03-20T03:51:00.260Z,101912.23
2018-03-20T03:53:29.356Z,101922.73
2018-03-20T03:55:57.678Z,101921.75
2018-03-20T03:58:26.003Z,101920.50
2018-03-20T04:00:54.333Z,101920.91
2018-03-20T04:03:22.644Z,101914.09
2018-03-20T04:05:50.947Z,101925.19
2018-03-20T04:08:19.277Z,101930.06
2018-03-20T04:10:47.612Z,101929.50
2018-03-20T04:13:15.935Z,101931.30
2018-03-20T04:15:44.253Z,101920.07
2018-03-20T04:18:12.631Z,101929.22
2018-03-20T04:20:41.733Z,101924.88
2018-03-20T04:23:10.071Z,101925.09
2018-03-20T04:25:39.185Z,101937.95
2018-03-20T04:28:08.255Z,101937.81
2018-03-20T04:30:36.561Z,101938.89
2018-03-20T04:33:05.723Z,101936.34
2018-03-20T04:35:34.043Z,101938.28
2018-03-20T04:38:03.113Z,101946.19
2018-03-20T04:40:31.515Z,101954.20
2018-03-20T04:43:00.620Z,101953.80
2018-03-20T04:45:29.736Z,101946.88
2018-03-20T04:47:58.051Z,101944.54
2018-03-20T04:50:26.376Z,101955.19
2018-03-20T04:52:55.450Z,101951.36
2018-03-20T04:55:23.790Z,101955.45
2018-03-20T04:57:52.083Z,101948.42
2018-03-20T05:00:20.401Z,101959.99
2018-03-20T05:02:48.710Z,101959.99
2018-03-20T05:05:17.795Z,101955.60
2018-03-20T05:07:46.100Z,101956.89
2018-03-20T05:10:15.181Z,101961.80
2018-03-20T05:12:43.485Z,101960.66
2018-03-20T05:15:11.826Z,101967.38
2018-03-20T05:17:41.956Z,101977.83
2018-03-20T05:33:38.751Z,101983.80
2018-03-20T05:36:07.073Z,101975.82
2018-03-20T05:38:35.376Z,101978.55
2018-03-20T05:41:04.467Z,101982.69
2018-03-20T05:43:32.800Z,101991.89
2018-03-20T05:46:01.111Z,101990.28
2018-03-20T05:48:35.673Z,102002.05
2018-03-20T05:54:02.443Z,102005.63
2018-03-20T05:56:30.770Z,102005.41
2018-03-20T05:58:59.060Z,102001.33
2018-03-20T06:01:28.127Z,102001.62
2018-03-20T06:03:56.468Z,102001.81
2018-03-20T06:06:24.766Z,102013.99
2018-03-20T06:08:53.102Z,102015.42
2018-03-20T06:11:21.425Z,102021.44
2018-03-20T06:13:49.788Z,102030.08
2018-03-20T06:16:18.862Z,102027.01
2018-03-20T06:18:47.158Z,102034.70
2018-03-20T06:21:16.410Z,102033.98
2018-03-20T06:23:44.946Z,102050.79
2018-03-20T06:26:14.034Z,102041.59
2018-03-20T06:28:42.392Z,102040.70
2018-03-20T06:31:10.720Z,102052.27
2018-03-20T06:33:39.802Z,102056.96
2018-03-20T06:36:08.108Z,102062.71
2018-03-20T06:38:36.544Z,102070.27
2018-03-20T06:41:04.875Z,102066.02
2018-03-20T06:43:33.903Z,102076.57
2018-03-20T06:46:02.217Z,102091.47
2018-03-20T06:48:30.512Z,102090.07
2018-03-20T06:50:59.602Z,102096.91
2018-03-20T06:53:27.952Z,102101.01
2018-03-20T06:55:56.318Z,102107.47
2018-03-20T06:58:24.611Z,102115.99
2018-03-20T07:00:52.909Z,102123.93
2018-03-20T07:03:21.235Z,102123.84
2018-03-20T07:05:50.292Z,102122.89
2018-03-20T07:08:18.616Z,102135.73
2018-03-20T07:10:46.944Z,102135.97
2018-03-20T07:13:15.246Z,102140.43
2018-03-20T07:15:43.536Z,102139.72
2018-03-20T07:18:11.870Z,102149.92
2018-03-20T07:20:40.188Z,102149.28
2018-03-20T07:23:08.522Z,102160.61
2018-03-20T07:25:36.832Z,102172.55
2018-03-20T07:28:05.177Z,102169.42
2018-03-20T07:30:34.257Z,102174.23
2018-03-20T07:33:02.556Z,102182.55
2018-03-20T07:35:31.626Z,102178.90
2018-03-20T07:37:59.958Z,102190.16
2018-03-20T07:40:28.274Z,102190.61
2018-03-20T07:42:56.588Z,102186.89
2018-03-20T07:45:25.689Z,102198.19
2018-03-20T07:47:54.005Z,102205.94
2018-03-20T07:50:22.317Z,102211.05
2018-03-20T07:52:50.636Z,102216.69
2018-03-20T07:55:19.693Z,102218.59
2018-03-20T07:57:48.025Z,102224.41
2018-03-20T08:00:17.112Z,102233.76
2018-03-20T08:02:46.216Z,102240.02
2018-03-20T08:05:15.310Z,102244.10
2018-03-20T08:07:43.679Z,102230.90
2018-03-20T08:10:12.033Z,102247.86
2018-03-20T08:12:40.360Z,102250.05
2018-03-20T08:15:09.441Z,102260.87
2018-03-20T08:17:37.750Z,102252.34
2018-03-20T08:20:06.828Z,102261.96
2018-03-20T08:22:35.152Z,102271.27
2018-03-20T08:25:03.466Z,102272.88
2018-03-20T08:27:31.805Z,102286.50
2018-03-20T08:30:00.892Z,102280.35
2018-03-20T08:32:29.976Z,102280.75
2018-03-20T08:34:58.331Z,102292.00
2018-03-20T08:37:26.641Z,102292.00
2018-03-20T08:39:54.961Z,102303.25
2018-03-20T08:42:23.271Z,102306.45
2018-03-20T08:44:51.573Z,102306.94
2018-03-20T08:47:19.863Z,102302.30
2018-03-20T08:49:48.839Z,102314.19
2018-03-20T08:52:17.134Z,102315.28
2018-03-20T08:54:45.458Z,102312.91
2018-03-20T08:57:14.556Z,102325.25
2018-03-20T08:59:43.712Z,102324.38
2018-03-20T09:02:12.047Z,102331.13
2018-03-20T09:04:41.132Z,102337.34
2018-03-20T09:07:10.238Z,102331.92
2018-03-20T09:09:39.334Z,102334.28
2018-03-20T09:12:07.668Z,102349.45
2018-03-20T09:14:35.970Z,102350.09
2018-03-20T09:17:04.286Z,102354.84
2018-03-20T09:19:32.615Z,102349.83
2018-03-20T09:22:00.902Z,102353.62
2018-03-20T09:24:29.248Z,102359.05
2018-03-20T09:26:57.566Z,102365.00
2018-03-20T09:29:25.914Z,102364.24
2018-03-20T09:31:54.223Z,102360.70
2018-03-20T09:34:22.520Z,102377.71
2018-03-20T09:36:50.834Z,102383.58
2018-03-20T09:39:19.904Z,102387.02
2018-03-20T09:41:48.811Z,102380.98
2018-03-20T09:44:17.150Z,102380.73
2018-03-20T09:46:46.106Z,102385.05
2018-03-20T09:49:15.173Z,102389.33
2018-03-20T09:51:43.484Z,102401.68
2018-03-20T09:54:12.022Z,102412.32
2018-03-20T09:56:40.572Z,102406.20
2018-03-20T09:59:09.643Z,102419.20
2018-03-20T10:01:38.740Z,102420.22
2018-03-20T10:04:07.050Z,102431.48
2018-03-20T10:06:36.130Z,102426.55
2018-03-20T10:09:04.431Z,102440.42
2018-03-20T10:11:33.529Z,102455.50
2018-03-20T10:14:02.662Z,102451.86
2018-03-20T10:16:31.989Z,102453.17
2018-03-20T10:21:34.976Z,102461.48
2018-03-20T10:24:03.356Z,102451.86
2018-03-20T10:26:31.821Z,102464.42
2018-03-20T10:29:00.916Z,102466.56
2018-03-20T10:31:30.080Z,102469.28
2018-03-20T10:33:58.411Z,102478.84
2018-03-20T10:36:26.730Z,102484.86
2018-03-20T10:38:55.028Z,102486.84
2018-03-20T10:41:23.361Z,102493.70
2018-03-20T10:43:51.730Z,102488.44
2018-03-20T10:46:20.016Z,102502.44
2018-03-20T10:48:50.588Z,102491.34
2018-03-20T10:51:18.917Z,102499.84
2018-03-20T10:53:47.237Z,102514.51
2018-03-20T10:56:15.582Z,102508.59
2018-03-20T10:58:44.681Z,102505.04
2018-03-20T11:01:18.602Z,102510.70
2018-03-20T11:03:47.700Z,102509.02
2018-03-20T11:06:16.773Z,102523.92
2018-03-20T11:08:45.092Z,102520.95
2018-03-20T11:11:13.410Z,102522.70
2018-03-20T11:13:41.737Z,102519.98
2018-03-20T11:16:10.848Z,102513.56
2018-03-20T11:18:39.934Z,102525.80
2018-03-20T11:21:08.280Z,102536.44
2018-03-20T11:23:38.044Z,102542.73
2018-03-20T11:26:07.139Z,102538.05
2018-03-20T11:28:36.203Z,102525.03
2018-03-20T11:31:04.551Z,102547.48
2018-03-20T11:33:32.865Z,102535.56
2018-03-20T11:36:01.202Z,102544.85
2018-03-20T11:38:29.517Z,102537.72
2018-03-20T11:40:57.820Z,102547.35
2018-03-20T11:43:26.155Z,102553.44
2018-03-20T11:51:12.706Z,102568.62
2018-03-20T11:53:41.288Z,102569.95
2018-03-20T11:56:09.596Z,102567.72
2018-03-20T11:58:37.917Z,102574.03
2018-03-20T12:01:06.999Z,102568.61
2018-03-20T12:03:35.342Z,102565.63
2018-03-20T12:06:03.655Z,102579.41
2018-03-20T12:08:49.877Z,102581.58
2018-03-20T12:11:18.944Z,102578.66
2018-03-20T12:13:47.252Z,102591.27
2018-03-20T12:16:15.646Z,102590.83
2018-03-20T12:18:44.710Z,102598.45
2018-03-20T12:21:13.036Z,102577.34
2018-03-20T12:23:41.367Z,102582.63
2018-03-20T12:26:09.719Z,102598.91
2018-03-20T12:28:38.030Z,102601.34
2018-03-20T12:31:06.348Z,102604.58
2018-03-20T12:33:35.425Z,102601.97
2018-03-20T12:36:03.774Z,102620.62
2018-03-20T12:38:32.084Z,102609.45
2018-03-20T12:41:00.444Z,102608.41
2018-03-20T12:43:28.759Z,102607.02
2018-03-20T12:45:57.092Z,102601.70
2018-03-20T12:48:25.384Z,102595.45
2018-03-20T12:50:53.714Z,102593.53
2018-03-20T12:53:22.027Z,102611.09
2018-03-20T12:55:50.327Z,102624.09
2018-03-20T12:58:18.675Z,102602.60
2018-03-20T13:00:48.626Z,102614.08
2018-03-20T13:03:17.041Z,102614.52
2018-03-20T13:05:45.360Z,102625.08
2018-03-20T13:08:14.457Z,102633.25
2018-03-20T13:10:42.786Z,102637.69
2018-03-20T13:13:11.442Z,102621.16
2018-03-20T13:15:39.709Z,102628.16
2018-03-20T13:18:08.808Z,102618.45
2018-03-20T13:20:37.885Z,102638.62
2018-03-20T13:23:06.213Z,102631.53
2018-03-20T13:25:34.580Z,102634.19
2018-03-20T13:28:03.684Z,102625.42
2018-03-20T13:30:32.761Z,102636.55
2018-03-20T13:33:01.087Z,102630.09
2018-03-20T13:35:29.408Z,102630.37
2018-03-20T13:37:57.730Z,102639.59
2018-03-20T13:40:27.584Z,102635.12
2018-03-20T13:42:55.905Z,102644.80
2018-03-20T13:45:24.234Z,102642.63
2018-03-20T13:47:52.570Z,102640.92
2018-03-20T13:50:20.959Z,102638.86
2018-03-20T13:52:49.449Z,102651.78
2018-03-20T13:55:17.652Z,102640.45
2018-03-20T13:57:45.954Z,102645.55
2018-03-20T14:00:14.259Z,102633.63
2018-03-20T14:02:42.599Z,102642.54
2018-03-20T14:05:11.646Z,102644.29
2018-03-20T14:07:40.517Z,102647.92
2018-03-20T14:10:08.821Z,102622.56
2018-03-20T14:12:37.372Z,102645.87
2018-03-20T14:15:06.040Z,102648.85
2018-03-20T14:17:35.226Z,102652.67
2018-03-20T14:20:03.851Z,102661.22
2018-03-20T14:22:32.175Z,102638.17
2018-03-20T14:25:00.489Z,102656.68
2018-03-20T14:27:29.631Z,102656.49
2018-03-20T14:29:57.937Z,102664.80
2018-03-20T14:32:26.262Z,102666.44
2018-03-20T14:34:55.349Z,102660.45
2018-03-20T14:37:24.418Z,102659.53
2018-03-20T14:39:52.736Z,102659.44
2018-03-20T14:42:21.803Z,102667.46
2018-03-20T14:44:50.093Z,102669.34
2018-03-20T14:47:18.411Z,102668.13
2018-03-20T14:49:46.721Z,102677.20
2018-03-20T14:52:15.115Z,102686.10
2018-03-20T14:54:43.494Z,102680.63
2018-03-20T14:57:11.794Z,102683.39
2018-03-20T14:59:40.171Z,102680.20
2018-03-20T15:02:08.492Z,102688.16
2018-03-20T15:04:37.563Z,102685.98
2018-03-20T15:07:05.865Z,102682.92
2018-03-20T15:09:34.189Z,102684.23
2018-03-20T15:12:02.489Z,102695.68
2018-03-20T15:14:30.794Z,102688.83
2018-03-20T15:16:59.116Z,102717.25
2018-03-20T15:19:27.444Z,102692.16
2018-03-20T15:21:55.749Z,102688.03
2018-03-20T15:24:24.051Z,102698.84
2018-03-20T15:26:53.133Z,102709.16
2018-03-20T15:29:21.458Z,102694.37
2018-03-20T15:31:49.766Z,102704.30
2018-03-20T15:34:18.085Z,102706.15
2018-03-20T15:36:46.489Z,102715.81
2018-03-20T15:39:14.812Z,102719.03
2018-03-20T15:41:43.113Z,102709.40
2018-03-20T15:44:11.437Z,102722.22
2018-03-20T15:46:39.740Z,102725.60
2018-03-20T15:49:08.057Z,102729.22
2018-03-20T15:51:36.363Z,102724.27
2018-03-20T15:54:05.471Z,102735.88
2018-03-20T15:56:34.545Z,102735.14
2018-03-20T15:59:02.851Z,102741.58
2018-03-20T16:01:31.916Z,102741.77
2018-03-20T16:04:00.267Z,102755.29
2018-03-20T16:06:28.569Z,102734.69
2018-03-20T16:08:56.883Z,102746.86
2018-03-20T16:11:25.201Z,102763.64
2018-03-20T16:13:53.508Z,102756.55
2018-03-20T16:16:21.825Z,102755.66
2018-03-20T16:18:50.161Z,102760.06
2018-03-20T16:21:18.487Z,102748.98
2018-03-20T16:23:46.801Z,102756.08
2018-03-20T16:26:15.891Z,102756.39
2018-03-20T16:28:44.989Z,102769.64
2018-03-20T16:31:14.108Z,102763.13
2018-03-20T16:33:42.418Z,102776.25
2018-03-20T16:36:10.721Z,102777.75
2018-03-20T16:38:39.027Z,102799.22
2018-03-20T16:41:08.133Z,102794.75
2018-03-20T16:43:37.195Z,102793.84
2018-03-20T16:46:05.525Z,102801.63
2018-03-20T16:48:34.611Z,102803.55
2018-03-20T16:51:03.727Z,102810.47
2018-03-20T16:53:32.844Z,102806.50
2018-03-20T16:56:01.172Z,102810.68
2018-03-20T16:58:29.484Z,102822.50
2018-03-20T17:00:58.584Z,102820.84
2018-03-20T17:03:27.887Z,102831.05
2018-03-20T17:05:57.013Z,102825.45
2018-03-20T17:08:25.317Z,102831.41
2018-03-20T17:10:53.624Z,102835.66
2018-03-20T17:13:21.953Z,102831.34
2018-03-20T17:15:50.255Z,102840.77
2018-03-20T17:18:18.593Z,102832.59
2018-03-20T17:20:47.673Z,102841.98
2018-03-20T17:23:15.983Z,102838.42
2018-03-20T17:25:45.103Z,102840.58
2018-03-20T17:28:13.445Z,102850.77
2018-03-20T17:30:41.769Z,102845.50
2018-03-20T17:33:10.107Z,102858.17
2018-03-20T17:35:38.421Z,102846.15
2018-03-20T17:38:07.424Z,102855.17
2018-03-20T17:40:35.719Z,102851.13
2018-03-20T17:43:04.033Z,102850.42
2018-03-20T17:45:32.329Z,102855.91
2018-03-20T17:48:00.656Z,102857.56
2018-03-20T17:50:28.989Z,102854.58
2018-03-20T17:52:57.331Z,102863.50
2018-03-20T17:55:25.676Z,102861.77
2018-03-20T17:57:54.763Z,102861.52
2018-03-20T18:00:23.094Z,102867.20
2018-03-20T18:02:51.419Z,102873.28
2018-03-20T18:05:19.754Z,102876.52
2018-03-20T18:07:48.063Z,102875.74
2018-03-20T18:10:16.401Z,102882.00
2018-03-20T18:12:44.786Z,102882.75
2018-03-20T18:15:13.119Z,102882.84
2018-03-20T18:17:41.460Z,102889.38
2018-03-20T18:20:09.853Z,102887.45
2018-03-20T18:22:38.202Z,102894.09
2018-03-20T18:25:07.295Z,102889.88
2018-03-20T18:27:36.395Z,102904.58
2018-03-20T18:30:04.739Z,102905.89
2018-03-20T18:32:33.095Z,102916.22
2018-03-20T18:35:01.415Z,102916.56
2018-03-20T18:37:29.834Z,102924.53
2018-03-20T18:39:58.940Z,102927.72
2018-03-20T18:42:28.065Z,102923.58
2018-03-20T18:44:56.412Z,102931.09
2018-03-20T18:47:25.546Z,102933.98
2018-03-20T18:49:53.927Z,102936.15
2018-03-20T18:52:22.285Z,102938.92
2018-03-20T18:54:51.388Z,102955.37
2018-03-20T18:57:20.509Z,102947.66
2018-03-20T18:59:48.840Z,102946.64
2018-03-20T19:02:17.487Z,102949.67
2018-03-20T19:04:45.883Z,102943.85
2018-03-20T19:07:14.951Z,102947.75
2018-03-20T19:09:44.065Z,102958.23
2018-03-20T19:12:12.410Z,102958.18
2018-03-20T19:14:40.824Z,102969.50
2018-03-20T19:17:09.158Z,102965.36
2018-03-20T19:19:37.500Z,102971.95
2018-03-20T19:22:05.912Z,102975.86
2018-03-20T19:24:34.286Z,102973.00
2018-03-20T19:27:02.698Z,102978.29
2018-03-20T19:29:31.066Z,102977.79
2018-03-20T19:31:59.431Z,102981.48
2018-03-20T19:34:27.790Z,102987.94
2018-03-20T19:36:56.156Z,102990.89
2018-03-20T19:39:25.379Z,102994.20
2018-03-20T19:41:53.646Z,102996.62
2018-03-20T19:44:22.759Z,102998.52
2018-03-20T19:46:51.160Z,103005.33
2018-03-20T19:49:19.579Z,103009.34
2018-03-20T19:51:47.942Z,103010.11
2018-03-20T19:54:17.060Z,103011.11
2018-03-20T19:56:46.214Z,103015.42
2018-03-20T19:59:14.654Z,103013.59
2018-03-20T20:01:43.050Z,103014.22
2018-03-20T20:04:12.186Z,103024.04
2018-03-20T20:06:40.591Z,103021.45
2018-03-20T20:09:09.077Z,103015.27
2018-03-20T20:11:37.560Z,103018.97
2018-03-20T20:14:05.928Z,103019.31
2018-03-20T20:16:34.313Z,103020.26
2018-03-20T20:19:02.744Z,103027.81
2018-03-20T20:21:31.202Z,103026.59
2018-03-20T20:23:59.554Z,103023.75
2018-03-20T20:26:28.012Z,103038.85
2018-03-20T20:28:56.422Z,103034.52
2018-03-20T20:31:24.787Z,103034.46
2018-03-20T20:33:53.933Z,103031.97
2018-03-20T20:36:22.409Z,103040.56
2018-03-20T20:38:50.806Z,103045.59
2018-03-20T20:41:19.142Z,103042.55
2018-03-20T20:43:48.260Z,103040.20
2018-03-20T20:46:16.770Z,103045.85
2018-03-20T20:48:45.138Z,103054.20
2018-03-20T20:51:13.510Z,103059.23
2018-03-20T20:53:41.852Z,103060.98
2018-03-20T20:56:10.240Z,103058.58
2018-03-20T20:58:38.597Z,103056.97
2018-03-20T21:01:06.946Z,103053.95
2018-03-20T21:03:35.284Z,103059.23
2018-03-20T21:06:03.657Z,103058.20
2018-03-20T21:08:32.020Z,103062.81
2018-03-20T21:11:00.416Z,103065.44
2018-03-20T21:13:28.764Z,103058.22
2018-03-20T21:15:57.244Z,103068.45
2018-03-20T21:18:25.598Z,103070.75
2018-03-20T21:20:53.957Z,103068.45
2018-03-20T21:23:22.311Z,103071.72
2018-03-20T21:25:50.655Z,103077.04
2018-03-20T21:28:18.984Z,103077.04
2018-03-20T21:30:47.318Z,103074.45
2018-03-20T21:33:16.420Z,103075.00
2018-03-20T21:35:45.516Z,103080.03
2018-03-20T21:38:13.854Z,103085.27
2018-03-20T21:40:42.187Z,103092.80
2018-03-20T21:43:11.294Z,103088.52
2018-03-20T21:45:40.374Z,103095.16
2018-03-20T21:48:09.476Z,103094.87
2018-03-20T21:50:37.786Z,103102.73
2018-03-20T21:53:06.124Z,103097.65
2018-03-20T21:55:34.464Z,103104.29
2018-03-20T21:58:02.761Z,103098.20
2018-03-20T22:00:31.068Z,103100.13
2018-03-20T22:02:59.382Z,103099.61
2018-03-20T22:05:28.470Z,103095.61
2018-03-20T22:07:57.537Z,103098.38
2018-03-20T22:10:26.614Z,103105.83
2018-03-20T22:12:54.918Z,103098.89
2018-03-20T22:15:23.284Z,103103.70
2018-03-20T22:17:51.529Z,103104.45
2018-03-20T22:20:20.678Z,103099.23
2018-03-20T22:22:49.003Z,103097.91
2018-03-20T22:25:18.092Z,103103.23
2018-03-20T22:27:46.432Z,103101.65
2018-03-20T22:30:14.731Z,103104.67
2018-03-20T22:32:43.064Z,103098.31
2018-03-20T22:35:12.152Z,103104.30
2018-03-20T22:37:41.233Z,103098.69
2018-03-20T22:40:09.546Z,103099.59
2018-03-20T22:42:37.860Z,103093.27
2018-03-20T22:45:06.177Z,103092.57
2018-03-20T22:47:34.510Z,103092.02
2018-03-20T22:50:02.809Z,103092.57
2018-03-20T22:52:31.139Z,103095.51
2018-03-20T22:55:00.242Z,103098.20
2018-03-20T22:57:29.316Z,103093.72
2018-03-20T22:59:57.608Z,103098.20
2018-03-20T23:02:25.920Z,103096.11
2018-03-20T23:04:54.232Z,103101.85
2018-03-20T23:07:22.547Z,103106.23
2018-03-20T23:09:50.903Z,103108.97
2018-03-20T23:12:19.202Z,103102.41
2018-03-20T23:14:47.564Z,103104.87
2018-03-20T23:17:15.880Z,103104.91
2018-03-20T23:19:44.228Z,103107.83
2018-03-20T23:22:12.548Z,103113.24
2018-03-20T23:24:40.864Z,103115.93
2018-03-20T23:27:09.207Z,103115.17
2018-03-20T23:29:37.851Z,103116.16
2018-03-20T23:32:06.176Z,103117.60
2018-03-20T23:34:34.484Z,103123.06
2018-03-20T23:37:03.580Z,103114.86
2018-03-20T23:39:32.683Z,103125.79
2018-03-20T23:42:02.608Z,103122.08
2018-03-20T23:44:31.680Z,103122.10
2018-03-20T23:46:59.995Z,103121.28
2018-03-20T23:49:28.308Z,103118.29
2018-03-20T23:51:56.633Z,103114.34
2018-03-20T23:54:25.736Z,103113.12
2018-03-20T23:56:55.196Z,103112.98
2018-03-20T23:59:23.513Z,103109.77
